Airfield :







YOU CAN JOIN US ON...

 
LOGIN :

Register | Disclaimer

   EN    FR    IT 

 









Legend :    VFR   Marginal VFR   IFR   Intensive IFR   Very Intensive IFR
Visi :
Ceiling :
>= 8 km
>= 3000ft
5 to 8 km
1000 to 3000 ft
1500m to 5 km
500 to 1000 ft
800 to 1500m
200 to 500 ft
< 800m
< 200 ft
Symbols :   Thunderstorms  Fog  Heavy snow  Heavy precipitations  Wind > 20 kt






- Airport Elevation : 172 ft
- IATA code : YYY


CYYY - Mont Joli

CURRENT METAR :
  • 240700Z 07010KT 2SM BR OVC002 11/11 A3015 RMK SF8 SLP213

EXPIRED METARs :
  • 240634Z 06011KT 2SM BR OVC002 11/11 A3015 RMK SF8 SLP212
  • 240600Z 06012KT 3SM BR OVC002 11/11 A3016 RMK SF8 SLP216
  • 240500Z 06008KT 4SM BR BKN003 OVC080 11/11 A3017 RMK SF5AC3 SLP221

TAF TAF CYYY
Valid from the 24 at 08:00 until the 24 at 20:00 UTC


240741Z 2408/2420 08010KT 2SM BR OVC002
BECMG 2408/2410 P6SM NSW SCT002 OVC030
FM241000 12008KT P6SM SCT008 BKN030
TEMPO 2410/2412 BKN008 OVC030
FM241200 13010KT P6SM SCT015 BKN040
BECMG 2414/2416 14012G22KT
FM241800 15015G25KT P6SM BKN040 RMK NXT FCST BY 241400Z
CZUL FIR / North America



MET'MAP, your aeronautical weather chart ! - Copyright ORBIFLY December 2007 - Disclaimer

ORBIFLY MET'MAP TEAM :

Programming & Development : Alexandra Zaïnal
Concept & original design : Baudouin d'Aumeries
Assistance for programming : Marc-Olivier Méhu
Technical & hardware support : Manuel Goepfert

Contact : metmap@orbifly.com




SOURCES & CREDITS :

   NOAA